Time;durP1;ratioP1;P1;durP2;ratioP2;P2;SDS_P1;SDS_P2;PMS_P1;PMS_P2;Temp;Humidity;BMP_temperature;BMP_pressure;BME280_temperature;BME280_humidity;BME280_pressure;Samples;Min_cycle;Max_cycle;Signal;HPM_P1;HPM_P2
2023/01/29 00:00:08;;;;;;;22.42;14.13;;;;;;;-4.21;60.83;96573.94;5070825;28;20691;-67
2023/01/29 00:02:34;;;;;;;22.45;13.50;;;;;;;-4.30;60.57;96585.56;5067013;28;20520;-67
2023/01/29 00:05:00;;;;;;;24.15;14.80;;;;;;;-4.40;58.97;96580.78;5072128;28;20110;-69
2023/01/29 00:07:25;;;;;;;25.20;14.95;;;;;;;-4.41;61.73;96585.16;5068138;28;20802;-66
2023/01/29 00:09:50;;;;;;;25.95;14.93;;;;;;;-4.39;61.39;96585.94;5068816;28;20077;-68
2023/01/29 00:12:16;;;;;;;25.92;16.08;;;;;;;-4.43;61.37;96576.56;5066854;28;20328;-67
2023/01/29 00:14:41;;;;;;;24.95;14.57;;;;;;;-4.44;62.12;96577.47;5070476;28;20103;-69
2023/01/29 00:17:07;;;;;;;25.35;16.23;;;;;;;-4.48;61.84;96565.50;5070567;28;20104;-69
2023/01/29 00:19:33;;;;;;;27.27;16.55;;;;;;;-4.53;61.78;96573.47;5068065;28;20092;-68
2023/01/29 00:21:58;;;;;;;25.85;16.48;;;;;;;-4.57;61.89;96566.69;5073684;28;20585;-67
2023/01/29 00:24:24;;;;;;;29.95;17.40;;;;;;;-4.56;62.21;96564.03;5070717;28;20621;-68
2023/01/29 00:26:49;;;;;;;28.60;16.42;;;;;;;-4.60;61.74;96561.63;5070248;28;20080;-67
2023/01/29 00:29:14;;;;;;;29.38;16.80;;;;;;;-4.60;62.49;96564.22;5070123;28;20072;-68
2023/01/29 00:31:46;;;;;;;26.08;15.98;;;;;;;-4.61;62.50;96558.19;5076984;28;20376;-67
2023/01/29 00:34:11;;;;;;;28.40;16.37;;;;;;;-4.63;62.87;96562.59;5071645;28;20162;-67
2023/01/29 00:36:36;;;;;;;27.40;16.65;;;;;;;-4.68;62.02;96559.34;5076902;28;20104;-68
2023/01/29 00:39:09;;;;;;;25.80;16.05;;;;;;;-4.75;62.37;96550.94;5066497;28;20100;-68
2023/01/29 00:47:03;;;;;;;24.10;14.15;;;;;;;-4.88;62.88;96540.16;5071770;28;20063;-67
2023/01/29 00:49:31;;;;;;;24.10;14.70;;;;;;;-4.96;62.12;96537.84;5070856;28;20036;-69
2023/01/29 00:54:41;;;;;;;26.33;15.02;;;;;;;-4.99;63.12;96537.94;5072689;28;20065;-69
2023/01/29 00:57:06;;;;;;;25.35;15.57;;;;;;;-5.04;63.49;96537.28;5067811;28;20036;-68
2023/01/29 00:59:31;;;;;;;22.38;14.00;;;;;;;-5.16;63.64;96532.56;5065109;28;20082;-67
2023/01/29 01:04:41;;;;;;;22.17;13.73;;;;;;;-5.33;63.94;96515.88;5069354;28;20078;-68
2023/01/29 01:07:06;;;;;;;22.00;13.38;;;;;;;-5.40;61.73;96510.03;5068769;28;20477;-67
2023/01/29 01:12:19;;;;;;;24.85;13.98;;;;;;;-5.61;63.83;96506.47;5073531;28;20035;-68
2023/01/29 01:14:44;;;;;;;22.88;13.35;;;;;;;-5.47;64.10;96514.59;5070287;28;20304;-67
2023/01/29 01:17:10;;;;;;;23.10;14.02;;;;;;;-5.39;64.28;96510.88;5064150;28;20119;-67
2023/01/29 01:19:35;;;;;;;22.75;13.60;;;;;;;-5.36;63.98;96511.59;5061890;28;20474;-67
2023/01/29 01:22:01;;;;;;;22.20;13.73;;;;;;;-5.34;63.92;96514.16;5068243;28;20238;-68
2023/01/29 01:24:26;;;;;;;23.95;13.52;;;;;;;-5.36;63.78;96513.38;5063793;28;20041;-67
2023/01/29 01:26:51;;;;;;;22.25;13.07;;;;;;;-5.37;63.71;96517.72;5062685;28;20375;-68
2023/01/29 01:29:17;;;;;;;18.35;12.45;;;;;;;-5.66;54.08;96510.97;5066205;28;20069;-67
2023/01/29 01:31:42;;;;;;;18.88;11.52;;;;;;;-6.62;45.91;96510.72;5064572;28;20100;-67
2023/01/29 01:34:08;;;;;;;21.13;12.63;;;;;;;-6.26;62.49;96509.56;5067610;28;20099;-68
2023/01/29 01:36:33;;;;;;;20.17;12.32;;;;;;;-6.00;63.08;96515.59;5073338;28;20665;-66
2023/01/29 01:38:58;;;;;;;22.58;12.68;;;;;;;-5.78;64.72;96514.88;5070699;28;20106;-68
2023/01/29 01:41:24;;;;;;;16.73;11.77;;;;;;;-6.22;49.48;96515.50;5069178;28;20130;-67
2023/01/29 01:43:53;;;;;;;19.25;11.27;;;;;;;-6.55;52.15;96521.72;5071806;28;20472;-67
2023/01/29 01:46:19;;;;;;;20.33;12.60;;;;;;;-6.53;58.21;96522.50;5067396;28;20293;-68
2023/01/29 01:48:45;;;;;;;25.40;14.25;;;;;;;-6.23;62.81;96514.63;5063123;28;20104;-68
2023/01/29 01:51:11;;;;;;;23.10;14.15;;;;;;;-5.91;64.74;96515.28;5067793;28;20113;-68
2023/01/29 01:53:39;;;;;;;23.80;13.77;;;;;;;-5.75;64.87;96510.41;5068216;28;20084;-67
2023/01/29 01:56:16;;;;;;;20.52;13.13;;;;;;;-5.69;64.38;96511.94;5069982;28;20123;-68
2023/01/29 01:58:44;;;;;;;22.33;13.35;;;;;;;-5.74;64.20;96508.69;5066791;28;20089;-68
2023/01/29 02:01:10;;;;;;;17.05;10.75;;;;;;;-6.66;48.10;96516.91;5065846;28;20593;-71
2023/01/29 02:09:34;;;;;;;26.30;15.48;;;;;;;-6.09;64.32;96536.69;5066914;28;20143;-71
2023/01/29 02:12:29;;;;;;;25.25;15.10;;;;;;;-5.97;64.37;96534.50;5058657;28;20164;-72
2023/01/29 02:14:55;;;;;;;28.33;16.00;;;;;;;-5.87;64.60;96540.22;5071565;28;20107;-70
2023/01/29 02:17:20;;;;;;;26.30;15.52;;;;;;;-5.90;63.81;96529.97;5060326;28;20083;-70
2023/01/29 02:20:07;;;;;;;28.58;15.90;;;;;;;-5.84;64.70;96523.72;5066485;28;20201;-69
2023/01/29 02:22:47;;;;;;;27.92;15.70;;;;;;;-5.81;64.19;96527.94;5068844;28;20334;-71
2023/01/29 02:25:47;;;;;;;29.50;16.45;;;;;;;-5.90;63.42;96522.19;5069291;28;20157;-71
2023/01/29 02:28:35;;;;;;;29.42;17.05;;;;;;;-5.92;64.05;96523.13;5066238;28;20631;-72
2023/01/29 02:31:25;;;;;;;28.40;17.00;;;;;;;-5.95;65.21;96518.88;5064547;28;20166;-68
2023/01/29 02:33:56;;;;;;;;;;;;;;;-6.05;64.08;96517.53;5064789;28;20513;-72
2023/01/29 02:36:21;;;;;;;34.10;17.13;;;;;;;-6.08;64.14;96505.50;5067445;28;19997;-71
2023/01/29 02:38:53;;;;;;;28.25;16.67;;;;;;;-6.15;64.69;96494.47;5075387;28;20183;-70
2023/01/29 02:41:50;;;;;;;26.50;16.15;;;;;;;-6.24;63.50;96500.00;5068553;28;20123;-72
2023/01/29 02:44:27;;;;;;;23.70;14.50;;;;;;;-6.39;61.75;96491.00;5073851;28;20110;-72
2023/01/29 02:46:59;;;;;;;31.95;17.92;;;;;;;-6.38;64.67;96503.88;5074366;28;20083;-69
2023/01/29 02:49:43;;;;;;;32.03;18.40;;;;;;;-6.38;64.62;96488.31;5070649;28;20162;-73
2023/01/29 02:52:19;;;;;;;30.77;18.17;;;;;;;-6.32;64.94;96483.84;5072318;28;20120;-73
2023/01/29 02:54:49;;;;;;;29.92;16.95;;;;;;;-6.29;65.14;96483.75;5072190;28;20504;-72
2023/01/29 02:57:21;;;;;;;30.67;17.42;;;;;;;-6.38;66.64;96492.69;5062025;28;20105;-72
2023/01/29 02:59:56;;;;;;;19.48;12.40;;;;;;;-6.79;55.12;96496.53;5069322;28;20638;-69
2023/01/29 03:02:27;;;;;;;16.23;11.05;;;;;;;-7.33;49.19;96490.41;5069901;28;20581;-72
2023/01/29 03:04:57;;;;;;;17.80;11.30;;;;;;;-7.99;50.85;96499.97;5062121;28;20575;-72
2023/01/29 03:07:44;;;;;;;27.42;16.98;;;;;;;-7.07;65.92;96497.41;5068938;28;20276;-72
2023/01/29 03:10:34;;;;;;;28.83;16.85;;;;;;;-6.76;64.36;96504.22;5064739;28;20073;-71
2023/01/29 03:13:02;;;;;;;;;;;;;;;-6.78;61.65;96497.41;5068511;28;20101;-71
2023/01/29 03:15:30;;;;;;;28.17;15.70;;;;;;;-6.54;65.79;96493.19;5072569;28;20429;-72
2023/01/29 03:18:04;;;;;;;23.33;14.98;;;;;;;-6.40;65.71;96507.41;5070585;28;20129;-71
2023/01/29 03:20:32;;;;;;;20.23;12.55;;;;;;;-6.64;54.63;96507.31;5067566;28;20888;-71
2023/01/29 03:23:02;;;;;;;29.13;16.73;;;;;;;-6.71;62.48;96509.25;5066571;28;20642;-71
2023/01/29 03:33:53;;;;;;;25.27;15.88;;;;;;;-6.36;65.30;96512.47;5062848;28;20103;-71
2023/01/29 03:36:44;;;;;;;29.48;16.88;;;;;;;-6.34;65.45;96522.78;5051236;28;20107;-71
2023/01/29 03:39:10;;;;;;;28.77;16.88;;;;;;;-6.32;65.16;96530.50;5068977;28;20116;-70
2023/01/29 03:41:57;;;;;;;29.42;17.35;;;;;;;-6.40;64.39;96528.16;5067687;28;20352;-71
2023/01/29 03:45:04;;;;;;;32.78;18.20;;;;;;;-6.49;64.25;96514.59;5065860;28;20108;-72
2023/01/29 03:47:52;;;;;;;27.98;16.65;;;;;;;-6.50;64.59;96525.00;5016067;28;20100;-71
2023/01/29 03:50:33;;;;;;;27.67;16.42;;;;;;;-6.52;65.04;96524.22;5067390;28;20087;-71
2023/01/29 03:53:11;;;;;;;29.17;16.08;;;;;;;-6.54;65.54;96526.88;5063519;28;20423;-71
2023/01/29 03:55:42;;;;;;;28.60;16.10;;;;;;;-6.67;65.93;96530.72;5068629;28;20191;-72
2023/01/29 03:58:22;;;;;;;17.42;11.90;;;;;;;-7.40;51.52;96541.50;5067793;28;20205;-73
2023/01/29 04:01:00;;;;;;;22.35;14.48;;;;;;;-7.87;55.17;96545.34;5067320;28;20099;-71
2023/01/29 04:03:37;;;;;;;22.10;13.52;;;;;;;-8.79;55.76;96552.75;5068355;28;20143;-71
2023/01/29 04:06:08;;;;;;;22.77;14.43;;;;;;;-8.63;58.02;96548.06;5065509;28;20068;-73
2023/01/29 04:08:39;;;;;;;17.58;12.38;;;;;;;-8.31;54.73;96537.84;5066240;28;20130;-70
2023/01/29 04:11:10;;;;;;;21.23;13.70;;;;;;;-8.19;63.28;96532.38;5053669;28;20337;-69
2023/01/29 04:13:36;;;;;;;27.20;16.25;;;;;;;-7.14;67.62;96524.38;5050722;28;20073;-68
2023/01/29 04:16:01;;;;;;;28.15;16.48;;;;;;;-6.75;66.29;96518.03;5066210;28;20126;-71
2023/01/29 04:18:26;;;;;;;27.70;16.45;;;;;;;-6.55;66.12;96517.41;5047250;28;20095;-68
2023/01/29 04:20:52;;;;;;;28.02;16.23;;;;;;;-6.40;65.69;96522.97;5064755;28;20097;-69
2023/01/29 04:23:24;;;;;;;22.05;14.40;;;;;;;-6.62;61.74;96515.91;5059259;28;20161;-71
2023/01/29 04:26:17;;;;;;;24.63;15.20;;;;;;;-6.52;63.61;96508.69;5049167;28;20088;-67
2023/01/29 04:28:42;;;;;;;27.92;16.63;;;;;;;-6.38;63.05;96498.69;5067457;28;20112;-68
2023/01/29 04:31:07;;;;;;;28.43;16.90;;;;;;;-6.24;63.98;96492.22;5063276;28;20084;-70
2023/01/29 04:33:43;;;;;;;27.42;16.25;;;;;;;-6.16;64.41;96482.44;5065760;28;20716;-68
2023/01/29 04:36:34;;;;;;;28.52;15.95;;;;;;;-6.06;64.98;96474.31;5064244;28;21228;-72
2023/01/29 04:39:13;;;;;;;27.17;17.02;;;;;;;-6.07;64.55;96457.06;5066369;28;20082;-71
2023/01/29 04:42:12;;;;;;;26.95;16.02;;;;;;;-6.15;64.35;96471.16;5064521;28;20286;-69
2023/01/29 04:45:00;;;;;;;24.60;14.88;;;;;;;-6.30;64.09;96461.31;5065695;28;20189;-71
2023/01/29 04:47:50;;;;;;;21.27;13.50;;;;;;;-6.48;59.69;96463.63;5068053;28;20106;-68
2023/01/29 04:50:32;;;;;;;17.40;11.55;;;;;;;-7.68;49.73;96469.88;5062164;28;20092;-70
2023/01/29 04:53:15;;;;;;;20.55;12.77;;;;;;;-7.47;56.90;96467.53;5069473;28;20402;-67
2023/01/29 04:55:44;;;;;;;21.15;12.57;;;;;;;-7.31;60.26;96480.88;5055804;28;20639;-71
2023/01/29 04:58:31;;;;;;;27.02;14.95;;;;;;;-6.81;64.09;96484.53;5064405;28;20064;-68
2023/01/29 05:00:56;;;;;;;23.75;14.32;;;;;;;-6.53;64.12;96488.81;5067125;28;20104;-72
2023/01/29 05:03:23;;;;;;;21.17;13.15;;;;;;;-6.43;63.13;96492.81;5068036;28;20468;-68
2023/01/29 05:05:49;;;;;;;21.63;12.88;;;;;;;-6.38;62.09;96485.72;5051315;28;20097;-70
2023/01/29 05:08:20;;;;;;;26.02;14.45;;;;;;;-6.33;63.28;96484.75;5065137;28;20573;-72
2023/01/29 05:10:49;;;;;;;22.40;12.27;;;;;;;-6.47;61.04;96495.56;5069045;28;20079;-72
2023/01/29 05:13:14;;;;;;;17.25;10.52;;;;;;;-7.41;57.88;96495.84;5058656;28;20127;-71
2023/01/29 05:16:11;;;;;;;14.27;10.43;;;;;;;-6.96;53.24;96489.31;5068227;28;20119;-70
2023/01/29 05:18:36;;;;;;;21.17;13.00;;;;;;;-6.49;64.68;96482.69;5057757;28;20735;-69
2023/01/29 05:21:04;;;;;;;22.33;13.13;;;;;;;-6.39;63.77;96491.00;5069644;28;20384;-69
2023/01/29 05:23:30;;;;;;;22.83;12.68;;;;;;;-6.37;63.63;96474.47;5065970;28;20202;-69
2023/01/29 05:25:55;;;;;;;23.45;13.15;;;;;;;-6.36;64.23;96477.91;5067163;28;20371;-72
2023/01/29 05:28:21;;;;;;;22.98;13.68;;;;;;;-6.40;63.08;96481.50;5069666;28;20103;-68
2023/01/29 05:30:47;;;;;;;22.02;12.05;;;;;;;-6.39;63.89;96478.03;5071614;28;20070;-70
2023/01/29 05:33:20;;;;;;;21.05;12.98;;;;;;;-6.40;63.95;96482.34;5069514;28;20611;-69
2023/01/29 05:35:46;;;;;;;18.58;11.63;;;;;;;-6.45;63.73;96483.41;5066586;28;20173;-70
2023/01/29 05:38:11;;;;;;;24.15;12.88;;;;;;;-6.50;64.13;96483.56;5069617;28;20092;-70
2023/01/29 05:40:37;;;;;;;25.13;12.90;;;;;;;-6.51;63.74;96487.03;5069815;28;20307;-68
2023/01/29 05:43:03;;;;;;;22.80;12.77;;;;;;;-6.51;64.45;96489.63;5067838;28;20139;-68
2023/01/29 05:45:28;;;;;;;18.63;12.02;;;;;;;-6.51;64.42;96481.88;5069819;28;20595;-70
2023/01/29 05:47:57;;;;;;;22.38;11.60;;;;;;;-6.50;64.27;96471.44;5061885;28;20104;-69
2023/01/29 05:50:23;;;;;;;17.80;11.17;;;;;;;-6.40;63.62;96471.13;5069787;28;20081;-69
2023/01/29 05:52:48;;;;;;;20.50;12.65;;;;;;;-6.35;63.20;96464.06;5067858;28;20372;-68
2023/01/29 05:55:14;;;;;;;20.33;11.45;;;;;;;-6.30;63.27;96467.34;5065774;28;20333;-69
2023/01/29 05:57:39;;;;;;;18.63;11.57;;;;;;;-6.26;63.44;96455.09;5063777;28;20178;-71
2023/01/29 06:00:05;;;;;;;17.60;10.73;;;;;;;-6.33;59.38;96451.06;5068863;28;20318;-69
2023/01/29 06:02:31;;;;;;;17.02;10.77;;;;;;;-6.36;60.45;96445.06;5065120;28;20091;-69
2023/01/29 06:04:56;;;;;;;18.15;11.35;;;;;;;-6.39;61.31;96432.22;5070348;28;20130;-72
2023/01/29 06:07:22;;;;;;;20.70;11.85;;;;;;;-6.25;64.28;96429.13;5066568;28;20307;-68
2023/01/29 06:09:47;;;;;;;22.52;11.90;;;;;;;-6.20;64.01;96416.03;5070409;28;20066;-72
2023/01/29 06:12:13;;;;;;;17.80;10.88;;;;;;;-6.20;64.75;96416.03;5067045;28;20106;-68
2023/01/29 06:14:41;;;;;;;19.30;11.07;;;;;;;-6.20;62.29;96415.16;5069324;28;20120;-69
2023/01/29 06:17:06;;;;;;;18.27;10.70;;;;;;;-6.24;63.71;96420.47;5073707;28;20114;-72
2023/01/29 06:19:32;;;;;;;18.98;11.35;;;;;;;-6.33;63.74;96431.16;5070801;28;20373;-70
2023/01/29 06:21:57;;;;;;;19.10;12.98;;;;;;;-7.69;46.56;96431.94;5069597;28;20418;-70
2023/01/29 06:24:22;;;;;;;19.25;11.32;;;;;;;-9.03;53.88;96456.94;5070354;28;20109;-67
2023/01/29 06:26:48;;;;;;;18.02;11.50;;;;;;;-9.22;58.09;96477.97;5073424;28;20130;-67
2023/01/29 06:29:13;;;;;;;17.88;12.52;;;;;;;-11.04;56.19;96484.75;5073571;28;20428;-71
2023/01/29 06:31:39;;;;;;;18.02;10.48;;;;;;;-9.60;64.98;96477.94;5074874;28;20468;-69
2023/01/29 06:34:05;;;;;;;15.45;9.93;;;;;;;-8.26;65.55;96473.97;5073386;28;20076;-71
2023/01/29 06:36:31;;;;;;;19.13;10.40;;;;;;;-7.54;66.10;96472.88;5070360;28;20206;-68
2023/01/29 06:38:56;;;;;;;16.63;10.32;;;;;;;-7.12;66.10;96468.22;5068747;28;20161;-70
2023/01/29 06:41:24;;;;;;;17.65;10.23;;;;;;;-6.79;65.39;96475.00;5065010;28;20080;-67
2023/01/29 06:43:49;;;;;;;18.85;10.00;;;;;;;-6.59;65.01;96481.28;5064789;28;20123;-71
2023/01/29 06:46:14;;;;;;;17.73;10.25;;;;;;;-6.45;63.97;96468.72;5069489;28;20489;-67
2023/01/29 06:48:40;;;;;;;17.15;10.48;;;;;;;-6.36;63.18;96471.00;5076814;28;20387;-69
2023/01/29 06:51:06;;;;;;;14.77;9.57;;;;;;;-6.34;63.21;96467.50;5072044;28;20069;-69
2023/01/29 06:53:32;;;;;;;14.90;9.45;;;;;;;-6.35;62.36;96479.63;5072297;28;20172;-68
2023/01/29 06:55:57;;;;;;;17.73;9.18;;;;;;;-6.41;60.96;96480.69;5072818;28;20111;-70
2023/01/29 06:58:23;;;;;;;14.98;9.35;;;;;;;-6.43;61.52;96487.63;5070743;28;20144;-68
2023/01/29 07:00:48;;;;;;;15.45;8.90;;;;;;;-6.52;62.94;96490.53;5075149;28;20122;-71
2023/01/29 07:03:14;;;;;;;16.90;9.30;;;;;;;-7.21;58.23;96481.47;5071086;28;20109;-68
2023/01/29 07:05:39;;;;;;;16.42;9.27;;;;;;;-6.94;62.80;96487.50;5073650;28;20473;-67
2023/01/29 07:08:04;;;;;;;14.40;8.73;;;;;;;-6.77;63.22;96487.00;5070673;28;20100;-68
2023/01/29 07:10:30;;;;;;;16.65;9.88;;;;;;;-6.67;62.48;96484.94;5070854;28;20085;-68
2023/01/29 07:13:00;;;;;;;17.77;10.98;;;;;;;-7.16;51.37;96495.09;5070511;28;20095;-68
2023/01/29 07:15:25;;;;;;;14.68;9.18;;;;;;;-7.27;57.95;96500.59;5070293;28;20142;-68
2023/01/29 07:18:00;;;;;;;16.30;9.93;;;;;;;-7.44;56.55;96509.69;5071924;28;20533;-67
2023/01/29 07:20:27;;;;;;;13.77;9.45;;;;;;;-7.98;60.33;96513.78;5069927;28;20130;-68
2023/01/29 07:22:52;;;;;;;15.88;9.60;;;;;;;-7.45;60.69;96517.50;5062504;28;20100;-71
2023/01/29 07:25:18;;;;;;;21.00;13.05;;;;;;;-7.17;56.21;96506.34;5073845;28;20131;-68
2023/01/29 07:27:43;;;;;;;22.25;12.43;;;;;;;-7.40;53.54;96495.75;5072541;28;20166;-70
2023/01/29 07:30:09;;;;;;;17.17;9.75;;;;;;;-6.78;63.13;96498.25;5071941;28;20086;-69
2023/01/29 07:32:34;;;;;;;19.38;10.88;;;;;;;-6.54;62.47;96497.50;5064625;28;20111;-68
2023/01/29 07:35:00;;;;;;;15.82;9.50;;;;;;;-6.38;62.73;96495.28;5073726;28;20319;-69
2023/01/29 07:37:25;;;;;;;16.67;9.70;;;;;;;-6.18;62.41;96491.16;5071696;28;20435;-70
2023/01/29 07:39:51;;;;;;;17.80;10.05;;;;;;;-6.02;61.45;96491.47;5072577;28;20102;-67
2023/01/29 07:42:16;;;;;;;19.75;12.10;;;;;;;-6.06;59.97;96500.25;5071001;28;20082;-71
2023/01/29 07:44:41;;;;;;;23.20;14.25;;;;;;;-6.27;48.90;96487.97;5065949;28;20104;-70
2023/01/29 07:47:07;;;;;;;16.60;9.55;;;;;;;-6.16;57.93;96504.91;5074472;28;20779;-69
2023/01/29 07:49:32;;;;;;;29.25;15.02;;;;;;;-6.31;57.02;96516.63;5068312;28;20328;-71
2023/01/29 07:51:58;;;;;;;25.02;15.32;;;;;;;-6.47;58.51;96517.16;5068988;28;20269;-69
2023/01/29 07:54:23;;;;;;;43.63;11.90;;;;;;;-6.46;58.01;96518.00;5067605;28;20554;-70
2023/01/29 07:56:49;;;;;;;30.23;13.93;;;;;;;-6.07;55.11;96503.75;5073785;28;20415;-69
2023/01/29 07:59:14;;;;;;;29.50;15.07;;;;;;;-6.05;55.15;96501.97;5066816;28;20509;-71
2023/01/29 08:01:39;;;;;;;28.67;15.20;;;;;;;-6.22;55.42;96503.34;5072446;28;20401;-71
2023/01/29 08:04:05;;;;;;;46.85;18.25;;;;;;;-6.17;56.92;96513.59;5067134;28;20427;-70
2023/01/29 08:06:30;;;;;;;201.73;22.63;;;;;;;-6.06;57.45;96508.03;5071931;28;20128;-70
2023/01/29 08:08:56;;;;;;;53.83;20.25;;;;;;;-5.80;57.04;96504.56;5072143;28;20103;-71
2023/01/29 08:11:21;;;;;;;27.45;14.13;;;;;;;-5.89;56.96;96517.81;5065402;28;20839;-71
2023/01/29 08:13:47;;;;;;;32.58;14.73;;;;;;;-5.78;58.16;96520.06;5066310;28;20402;-69
2023/01/29 08:16:13;;;;;;;103.93;20.42;;;;;;;-5.60;59.47;96513.38;5074550;28;20111;-73
2023/01/29 08:18:41;;;;;;;30.90;15.27;;;;;;;-5.22;62.16;96507.66;5070096;28;20074;-71
2023/01/29 08:21:06;;;;;;;35.20;16.95;;;;;;;-4.86;60.04;96501.13;5069146;28;20640;-72
2023/01/29 08:23:32;;;;;;;34.75;19.08;;;;;;;-4.87;60.86;96502.88;5064451;28;20616;-69
2023/01/29 08:25:57;;;;;;;94.82;19.77;;;;;;;-4.35;57.05;96495.66;5068433;28;20078;-70
2023/01/29 08:28:22;;;;;;;25.42;14.52;;;;;;;-4.16;61.00;96493.13;5063161;28;20554;-70
2023/01/29 08:30:48;;;;;;;26.25;14.00;;;;;;;-3.86;60.41;96500.53;5069786;28;20214;-71
2023/01/29 08:33:13;;;;;;;28.55;16.30;;;;;;;-3.61;59.18;96489.06;5069255;28;20096;-72
2023/01/29 08:35:40;;;;;;;75.47;26.63;;;;;;;-3.67;48.89;96484.97;5068144;28;20102;-69
2023/01/29 08:38:05;;;;;;;34.80;18.63;;;;;;;-3.46;60.10;96491.91;5065017;28;20085;-70
2023/01/29 08:40:32;;;;;;;29.00;16.20;;;;;;;-3.24;59.82;96483.94;5067291;28;20569;-68
2023/01/29 08:43:01;;;;;;;38.38;22.40;;;;;;;-3.02;56.16;96481.19;5072745;28;20434;-71
2023/01/29 08:45:26;;;;;;;31.23;18.30;;;;;;;-2.69;58.00;96476.19;5063851;28;20067;-73
2023/01/29 08:47:52;;;;;;;38.50;21.90;;;;;;;-2.99;54.80;96484.56;5071359;28;20070;-71
2023/01/29 08:50:17;;;;;;;33.45;19.48;;;;;;;-2.93;56.67;96495.56;5071912;28;20066;-71
2023/01/29 08:52:43;;;;;;;37.83;20.98;;;;;;;-3.08;56.80;96502.34;5065639;28;20101;-70
2023/01/29 08:55:09;;;;;;;31.05;18.35;;;;;;;-3.96;54.99;96505.31;5064069;28;20123;-70
2023/01/29 08:57:34;;;;;;;40.17;21.85;;;;;;;-3.89;57.26;96505.88;5064918;28;20797;-71
2023/01/29 09:00:00;;;;;;;33.60;17.40;;;;;;;-4.57;56.35;96507.78;5063524;28;20084;-69
2023/01/29 09:02:25;;;;;;;31.35;18.08;;;;;;;-4.54;57.68;96516.34;5066285;28;20079;-71
2023/01/29 09:04:50;;;;;;;33.53;18.02;;;;;;;-4.31;57.30;96515.41;5071579;28;20099;-68
2023/01/29 09:07:16;;;;;;;25.60;12.73;;;;;;;-4.93;56.79;96525.66;5069559;28;20497;-70
2023/01/29 09:09:41;;;;;;;29.95;16.23;;;;;;;-5.01;57.35;96529.38;5074544;28;20120;-73
2023/01/29 09:12:07;;;;;;;21.73;12.20;;;;;;;-4.91;57.90;96524.69;5069900;28;20108;-70
2023/01/29 09:14:32;;;;;;;26.73;13.23;;;;;;;-5.01;56.30;96536.31;5068772;28;20072;-70
2023/01/29 09:16:57;;;;;;;39.30;17.60;;;;;;;-4.64;54.62;96532.31;5070745;28;20514;-68
2023/01/29 09:19:23;;;;;;;35.30;18.98;;;;;;;-4.65;55.72;96532.38;5073135;28;20520;-72
2023/01/29 09:21:48;;;;;;;22.02;12.93;;;;;;;-4.88;56.52;96536.72;5069828;28;20167;-72
2023/01/29 09:24:14;;;;;;;26.23;12.63;;;;;;;-4.69;55.03;96534.22;5068959;28;20356;-70
2023/01/29 09:26:39;;;;;;;29.17;14.70;;;;;;;-5.16;57.96;96533.41;5068151;28;20049;-71
2023/01/29 09:29:05;;;;;;;34.05;18.23;;;;;;;-4.33;60.07;96520.69;5070061;28;20117;-69
2023/01/29 09:31:30;;;;;;;22.42;13.45;;;;;;;-3.92;61.18;96521.63;5062046;28;20083;-69
2023/01/29 09:33:56;;;;;;;23.42;14.13;;;;;;;-3.38;61.14;96526.25;5072975;28;20143;-69
2023/01/29 09:36:21;;;;;;;27.70;14.70;;;;;;;-2.90;60.79;96515.41;5070646;28;20476;-73
2023/01/29 09:38:47;;;;;;;27.10;14.20;;;;;;;-2.45;60.40;96500.25;5073232;28;20047;-69
2023/01/29 09:41:16;;;;;;;32.63;18.58;;;;;;;-2.22;56.30;96495.66;5070769;28;20074;-71
2023/01/29 09:43:53;;;;;;;46.13;23.30;;;;;;;-2.03;48.04;96490.38;5067818;28;20159;-71
2023/01/29 09:46:27;;;;;;;34.28;20.90;;;;;;;-1.71;54.04;96489.66;5063890;28;20023;-71
2023/01/29 09:48:59;;;;;;;33.78;18.65;;;;;;;-1.85;54.11;96487.75;5069744;28;20040;-70
2023/01/29 09:51:31;;;;;;;32.25;18.60;;;;;;;-1.98;49.86;96488.38;5064058;28;20054;-69
2023/01/29 09:54:22;;;;;;;41.72;20.25;;;;;;;-1.53;54.44;96473.94;5052799;28;20111;-69
2023/01/29 09:56:48;;;;;;;24.48;14.85;;;;;;;-1.78;53.20;96473.47;5071562;28;20361;-68
2023/01/29 09:59:13;;;;;;;40.47;20.13;;;;;;;-1.31;45.71;96472.78;5070276;28;20416;-71
2023/01/29 10:01:44;;;;;;;44.53;21.90;;;;;;;-1.06;49.62;96474.91;5076256;28;20032;-69
2023/01/29 10:04:39;;;;;;;47.45;21.77;;;;;;;-1.78;50.87;96470.84;5066329;28;20033;-72
2023/01/29 10:07:29;;;;;;;35.10;20.95;;;;;;;-1.10;46.84;96473.41;5055240;28;20035;-70
2023/01/29 10:10:03;;;;;;;49.30;22.42;;;;;;;-0.82;46.24;96469.28;5069081;28;20141;-69
2023/01/29 10:12:56;;;;;;;29.88;18.00;;;;;;;-0.55;56.82;96462.63;5069350;28;20033;-68
2023/01/29 10:15:31;;;;;;;38.78;22.20;;;;;;;-0.55;45.92;96458.22;5070574;28;20041;-68
2023/01/29 10:17:59;;;;;;;25.40;14.20;;;;;;;-1.03;56.23;96466.06;5070732;28;20051;-70
2023/01/29 10:20:27;;;;;;;43.85;26.27;;;;;;;-0.80;42.63;96467.44;5070715;28;20458;-71
2023/01/29 10:23:09;;;;;;;40.20;23.83;;;;;;;-0.28;55.05;96462.78;5069686;28;20020;-68
2023/01/29 10:25:38;;;;;;;28.80;16.73;;;;;;;-0.23;50.57;96460.72;5075190;28;20107;-69
2023/01/29 10:28:06;;;;;;;22.50;12.27;;;;;;;-0.00;56.79;96447.25;5061197;28;20040;-71
2023/01/29 10:30:34;;;;;;;42.13;24.15;;;;;;;0.11;50.04;96444.84;5061920;28;20381;-70
2023/01/29 10:33:04;;;;;;;37.47;22.20;;;;;;;-0.76;51.34;96448.03;5069620;28;20500;-70
2023/01/29 10:35:41;;;;;;;29.10;18.00;;;;;;;-0.13;52.85;96436.66;5069730;28;20434;-69
2023/01/29 10:38:32;;;;;;;33.50;20.98;;;;;;;-1.62;48.72;96449.16;5070056;28;20320;-70
2023/01/29 10:41:09;;;;;;;24.73;16.20;;;;;;;-1.41;54.46;96446.31;5071821;28;20137;-71
2023/01/29 10:43:59;;;;;;;22.55;13.52;;;;;;;-0.73;50.70;96445.25;5069711;28;20190;-69
2023/01/29 10:46:24;;;;;;;27.10;16.90;;;;;;;-1.17;54.30;96438.94;5068071;28;20020;-70
2023/01/29 10:49:11;;;;;;;27.80;17.70;;;;;;;-0.47;53.55;96429.00;5069227;28;20075;-70
2023/01/29 10:51:39;;;;;;;34.63;20.20;;;;;;;-0.09;50.30;96427.69;5066539;28;20283;-72
2023/01/29 10:54:27;;;;;;;30.42;18.73;;;;;;;-0.15;48.35;96428.88;5069828;28;20028;-69
2023/01/29 10:57:14;;;;;;;29.75;17.48;;;;;;;-0.26;50.21;96432.16;5066805;28;20075;-70
2023/01/29 10:59:57;;;;;;;36.90;22.42;;;;;;;-0.52;48.17;96429.25;5069486;28;20112;-71
2023/01/29 11:02:23;;;;;;;28.15;17.23;;;;;;;-0.47;46.56;96426.38;5069689;28;20033;-70
2023/01/29 11:04:48;;;;;;;26.98;16.02;;;;;;;-0.47;44.51;96416.75;5070694;28;20059;-71
2023/01/29 11:07:15;;;;;;;31.10;18.20;;;;;;;-0.53;44.29;96416.25;5070043;28;20503;-71
2023/01/29 11:09:50;;;;;;;26.92;17.08;;;;;;;-0.43;45.56;96407.78;5052165;28;20046;-70
2023/01/29 11:12:19;;;;;;;28.33;16.85;;;;;;;-0.41;47.30;96405.09;5070345;28;20526;-70
2023/01/29 11:15:17;;;;;;;30.27;17.80;;;;;;;-0.28;47.64;96389.50;5051180;28;20412;-71
2023/01/29 11:18:12;;;;;;;31.08;17.63;;;;;;;0.01;50.02;96386.94;5068422;28;20058;-69
2023/01/29 11:20:37;;;;;;;24.60;14.10;;;;;;;0.57;52.79;96393.16;5076421;28;20135;-72
2023/01/29 11:23:03;;;;;;;24.75;14.45;;;;;;;1.15;51.97;96389.53;5069063;28;20033;-70
2023/01/29 11:25:31;;;;;;;21.88;14.68;;;;;;;0.82;50.97;96400.31;5067341;28;20442;-71
2023/01/29 11:27:59;;;;;;;31.00;19.83;;;;;;;0.84;47.83;96381.88;5070906;28;20634;-71
2023/01/29 11:30:33;;;;;;;30.75;19.77;;;;;;;0.75;41.78;96385.91;5054871;28;20039;-68
2023/01/29 11:33:11;;;;;;;28.05;18.05;;;;;;;0.85;44.62;96384.41;5066167;28;20175;-70
2023/01/29 11:35:36;;;;;;;27.75;17.65;;;;;;;0.54;45.38;96373.22;5066521;28;20643;-69
2023/01/29 11:38:23;;;;;;;32.17;20.65;;;;;;;1.00;47.32;96373.88;5061502;28;20085;-72
2023/01/29 11:40:48;;;;;;;27.33;17.40;;;;;;;1.08;44.52;96365.50;5067247;28;20098;-70
2023/01/29 11:43:25;;;;;;;35.17;20.33;;;;;;;-0.19;40.91;96354.09;5025472;28;1161165;-70
2023/01/29 11:45:53;;;;;;;33.50;21.23;;;;;;;-0.40;41.28;96361.44;5069087;28;20564;-71
2023/01/29 11:48:20;;;;;;;22.27;14.27;;;;;;;-0.43;46.17;96355.44;5064979;28;20180;-69
2023/01/29 11:50:56;;;;;;;26.52;15.13;;;;;;;0.19;48.68;96348.31;5059750;28;20352;-71
2023/01/29 11:53:43;;;;;;;23.20;15.35;;;;;;;1.04;49.99;96325.53;5049977;28;20690;-72
2023/01/29 11:56:29;;;;;;;30.25;19.58;;;;;;;-0.41;40.67;96326.59;5071291;28;20093;-68
2023/01/29 11:58:55;;;;;;;31.33;19.20;;;;;;;-0.53;44.32;96322.94;5066632;28;20072;-71
2023/01/29 12:01:37;;;;;;;27.92;18.73;;;;;;;-0.36;45.22;96321.94;5052648;28;20556;-71